Time;durP1;ratioP1;P1;durP2;ratioP2;P2;SDS_P1;SDS_P2;PMS_P1;PMS_P2;Temp;Humidity;BMP_temperature;BMP_pressure;BME280_temperature;BME280_humidity;BME280_pressure;Samples;Min_cycle;Max_cycle;Signal;HPM_P1;HPM_P2
2023/04/12 00:02:15;;;;;;;6.43;1.10;;;7.00;99.90;;;;;;5056144;28;20029;-66
2023/04/12 00:04:41;;;;;;;5.10;1.20;;;7.00;1.00;;;;;;5056124;28;20048;-66
2023/04/12 00:07:08;;;;;;;4.78;0.88;;;7.10;99.90;;;;;;5054644;28;20111;-66
2023/04/12 00:09:35;;;;;;;5.13;1.30;;;7.10;99.90;;;;;;5036774;28;20049;-66
2023/04/12 00:12:01;;;;;;;3.53;0.88;;;7.10;99.90;;;;;;5054797;28;20041;-67
2023/04/12 00:14:28;;;;;;;3.17;1.00;;;7.10;99.90;;;;;;5054468;28;20041;-66
2023/04/12 00:16:53;;;;;;;3.33;0.77;;;7.10;1.00;;;;;;5054626;28;20063;-66
2023/04/12 00:19:19;;;;;;;6.32;1.90;;;7.10;1.00;;;;;;5054426;28;20491;-67
2023/04/12 00:21:45;;;;;;;5.43;1.15;;;7.10;1.00;;;;;;5054539;28;20091;-66
2023/04/12 00:24:11;;;;;;;0.85;0.60;;;7.10;1.00;;;;;;5054366;28;20385;-66
2023/04/12 00:26:37;;;;;;;2.28;0.75;;;7.10;1.00;;;;;;5054387;28;20051;-66
2023/04/12 00:29:03;;;;;;;5.57;1.42;;;7.20;1.00;;;;;;5054474;28;20448;-66
2023/04/12 00:31:28;;;;;;;3.72;1.05;;;7.20;1.00;;;;;;5020327;28;20032;-66
2023/04/12 00:33:54;;;;;;;3.17;1.23;;;7.20;1.00;;;;;;5054016;28;20068;-66
2023/04/12 00:36:20;;;;;;;3.70;1.00;;;7.20;1.00;;;;;;5054898;28;20041;-64
2023/04/12 00:38:46;;;;;;;4.90;1.48;;;7.20;1.00;;;;;;5054022;28;20195;-64
2023/04/12 00:41:16;;;;;;;7.18;1.15;;;7.20;1.00;;;;;;5054293;28;20108;-63
2023/04/12 00:43:42;;;;;;;2.55;0.95;;;7.20;1.00;;;;;;5054013;28;20488;-64
2023/04/12 00:46:08;;;;;;;6.13;0.95;;;7.20;1.00;;;;;;5054113;28;20090;-64
2023/04/12 00:48:34;;;;;;;1.52;0.80;;;7.30;1.00;;;;;;5036042;28;20033;-64
2023/04/12 00:51:00;;;;;;;1.80;1.00;;;7.30;1.00;;;;;;5053931;28;20041;-65
2023/04/12 00:53:27;;;;;;;3.25;1.42;;;7.30;1.00;;;;;;5053762;28;20115;-66
2023/04/12 00:55:53;;;;;;;7.50;1.05;;;7.40;1.00;;;;;;5053969;28;20438;-63
2023/04/12 00:58:23;;;;;;;0.95;0.70;;;7.40;1.00;;;;;;5054066;28;20130;-64
2023/04/12 01:00:51;;;;;;;2.05;0.90;;;7.40;1.00;;;;;;5053944;28;20099;-64
2023/04/12 01:03:26;;;;;;;9.07;0.73;;;7.40;1.00;;;;;;5035706;28;20062;-64
2023/04/12 01:06:12;;;;;;;2.22;1.10;;;7.40;1.00;;;;;;5016351;28;1072550;-64
2023/04/12 01:08:39;;;;;;;2.17;1.02;;;7.40;1.00;;;;;;5054961;28;20422;-63
2023/04/12 01:11:11;;;;;;;2.15;1.05;;;7.40;1.00;;;;;;5054858;28;20133;-63
2023/04/12 01:13:54;;;;;;;2.70;0.95;;;7.50;1.00;;;;;;5054831;28;20039;-64
2023/04/12 01:16:28;;;;;;;2.25;0.88;;;7.50;1.00;;;;;;5054771;28;20038;-64
2023/04/12 01:18:59;;;;;;;3.50;1.15;;;7.50;1.00;;;;;;5054754;28;20076;-64
2023/04/12 01:21:52;;;;;;;1.38;0.90;;;7.50;1.00;;;;;;5054662;28;20037;-63
2023/04/12 01:24:42;;;;;;;2.72;1.08;;;7.60;1.00;;;;;;5054381;28;20052;-64
2023/04/12 01:27:32;;;;;;;4.50;1.17;;;7.60;1.00;;;;;;5054495;28;20048;-63
2023/04/12 01:30:00;;;;;;;1.45;0.90;;;7.80;1.00;;;;;;5054553;28;20390;-63
2023/04/12 01:32:26;;;;;;;7.30;1.42;;;7.90;99.90;;;;;;5054108;28;20048;-63
2023/04/12 01:34:53;;;;;;;7.47;1.58;;;8.10;99.90;;;;;;5054428;28;20043;-64
2023/04/12 01:37:21;;;;;;;2.67;0.85;;;8.20;99.90;;;;;;5054060;28;20124;-64
2023/04/12 01:39:47;;;;;;;1.77;1.00;;;8.30;99.90;;;;;;5054025;28;20094;-64
2023/04/12 01:42:20;;;;;;;2.17;1.23;;;8.30;99.90;;;;;;5054314;28;20033;-65
2023/04/12 01:44:46;;;;;;;5.28;1.05;;;8.40;99.90;;;;;;5054280;28;20040;-64
2023/04/12 01:47:12;;;;;;;2.58;1.13;;;8.40;99.90;;;;;;5053338;28;20139;-64
2023/04/12 01:49:54;;;;;;;9.15;1.85;;;8.50;99.90;;;;;;5054032;28;20041;-64
2023/04/12 01:52:22;;;;;;;6.22;1.83;;;8.50;99.90;;;;;;5054044;28;20079;-64
2023/04/12 01:54:52;;;;;;;2.67;1.08;;;8.50;99.90;;;;;;5054025;28;20041;-63
2023/04/12 01:57:20;;;;;;;3.53;1.23;;;8.50;99.90;;;;;;5054018;28;20083;-64
2023/04/12 01:59:47;;;;;;;3.65;1.20;;;8.60;99.90;;;;;;5053570;28;20052;-63
2023/04/12 02:02:13;;;;;;;3.45;1.20;;;8.60;99.90;;;;;;5053581;28;20044;-64
2023/04/12 02:04:40;;;;;;;5.32;1.52;;;8.60;99.90;;;;;;5053858;28;20037;-64
2023/04/12 02:07:06;;;;;;;3.10;1.27;;;8.60;99.90;;;;;;5018949;28;20049;-64
2023/04/12 02:09:38;;;;;;;3.08;1.02;;;8.60;99.90;;;;;;5053742;28;20044;-64
2023/04/12 02:12:07;;;;;;;2.67;1.17;;;8.50;99.90;;;;;;5053378;28;20040;-64
2023/04/12 02:14:33;;;;;;;3.53;1.17;;;8.50;1.00;;;;;;5053599;28;20465;-64
2023/04/12 02:17:01;;;;;;;6.07;1.20;;;8.40;1.00;;;;;;5053647;28;20048;-64
2023/04/12 02:19:26;;;;;;;3.53;1.42;;;8.30;1.00;;;;;;5053603;28;20407;-64
2023/04/12 02:21:52;;;;;;;4.10;1.77;;;8.40;1.00;;;;;;5053446;28;20051;-64
2023/04/12 02:24:18;;;;;;;3.53;1.30;;;8.40;1.00;;;;;;5053542;28;20037;-64
2023/04/12 02:26:44;;;;;;;1.70;0.93;;;8.20;1.00;;;;;;5053323;28;20086;-64
2023/04/12 02:29:11;;;;;;;4.18;1.70;;;8.40;1.00;;;;;;5053157;28;20040;-64
2023/04/12 02:31:37;;;;;;;3.42;1.40;;;8.40;1.00;;;;;;5035282;28;20045;-64
2023/04/12 02:34:04;;;;;;;2.25;1.08;;;8.40;1.00;;;;;;5053362;28;20107;-63
2023/04/12 02:36:30;;;;;;;3.08;1.52;;;8.40;28.90;;;;;;5052972;28;20044;-64
2023/04/12 02:38:56;;;;;;;4.93;1.20;;;8.40;44.60;;;;;;5053258;28;20048;-64
2023/04/12 02:41:23;;;;;;;4.15;1.08;;;8.40;40.50;;;;;;5053203;28;20485;-64
2023/04/12 02:43:49;;;;;;;3.88;1.00;;;8.40;58.40;;;;;;5053177;28;20072;-64
2023/04/12 02:46:21;;;;;;;2.22;1.25;;;8.40;74.40;;;;;;5053034;28;20072;-64
2023/04/12 02:48:47;;;;;;;1.70;1.02;;;8.40;72.00;;;;;;5052749;28;20123;-64
2023/04/12 02:51:13;;;;;;;1.33;0.70;;;8.40;83.10;;;;;;5053038;28;20072;-66
2023/04/12 02:53:39;;;;;;;6.60;1.13;;;8.40;82.00;;;;;;5052850;28;20040;-64
2023/04/12 02:56:05;;;;;;;4.35;0.90;;;9.00;88.80;;;;;;5053003;28;20081;-64
2023/04/12 02:58:32;;;;;;;3.70;0.93;;;8.40;90.70;;;;;;5052508;28;20040;-63
2023/04/12 03:00:58;;;;;;;2.78;1.02;;;8.40;91.50;;;;;;5052672;28;20116;-64
2023/04/12 03:03:25;;;;;;;2.80;1.05;;;8.40;94.50;;;;;;5052617;28;20403;-64
2023/04/12 03:05:51;;;;;;;1.55;0.57;;;8.40;91.60;;;;;;5052611;28;20499;-64
2023/04/12 03:08:17;;;;;;;2.65;0.90;;;8.40;93.00;;;;;;5052890;28;20139;-64
2023/04/12 03:10:43;;;;;;;5.97;0.80;;;8.40;94.50;;;;;;5052815;28;20111;-64
2023/04/12 03:13:10;;;;;;;0.73;0.55;;;8.40;94.60;;;;;;5052872;28;20072;-64
2023/04/12 03:15:35;;;;;;;1.65;0.73;;;9.10;94.30;;;;;;5034659;28;20045;-64
2023/04/12 03:18:01;;;;;;;1.38;0.93;;;8.40;92.70;;;;;;5052816;28;20040;-64
2023/04/12 03:20:27;;;;;;;3.70;0.52;;;8.40;90.60;;;;;;5052771;28;20037;-64
2023/04/12 03:22:53;;;;;;;2.92;1.13;;;8.40;86.40;;;;;;5052515;28;20037;-64
2023/04/12 03:25:19;;;;;;;3.75;0.82;;;8.30;82.50;;;;;;5052622;28;20068;-64
2023/04/12 03:27:45;;;;;;;2.40;0.63;;;8.40;79.30;;;;;;5052430;28;20451;-64
2023/04/12 03:30:11;;;;;;;3.28;0.77;;;8.60;82.90;;;;;;5052724;28;20037;-64
2023/04/12 03:32:38;;;;;;;1.13;0.60;;;;;;;;;;5052622;28;20385;-64
2023/04/12 03:35:06;;;;;;;1.75;0.50;;;8.50;67.70;;;;;;5052613;28;20048;-64
2023/04/12 03:37:32;;;;;;;1.80;0.80;;;8.50;58.90;;;;;;5052508;28;20041;-65
2023/04/12 03:39:58;;;;;;;4.03;0.70;;;8.50;52.50;;;;;;5052613;28;20500;-64
2023/04/12 03:42:24;;;;;;;2.03;0.85;;;8.50;61.30;;;;;;5052576;28;20033;-64
2023/04/12 03:44:51;;;;;;;3.60;0.70;;;8.60;52.10;;;;;;5052573;28;20095;-64
2023/04/12 03:47:17;;;;;;;1.45;0.68;;;8.50;55.90;;;;;;5052049;28;20098;-64
2023/04/12 03:49:43;;;;;;;1.65;0.73;;;8.60;53.50;;;;;;5052484;28;20441;-64
2023/04/12 03:52:08;;;;;;;1.00;0.70;;;8.60;49.10;;;;;;5034407;28;20071;-64
2023/04/12 03:54:34;;;;;;;1.98;0.80;;;8.50;53.30;;;;;;5052392;28;20485;-64
2023/04/12 03:57:00;;;;;;;2.25;0.88;;;8.60;52.70;;;;;;5052471;28;20037;-64
2023/04/12 03:59:31;;;;;;;0.93;0.63;;;8.50;59.90;;;;;;5052053;28;20037;-64
2023/04/12 04:01:58;;;;;;;1.75;0.77;;;8.50;51.70;;;;;;5052413;28;20133;-64
2023/04/12 04:04:24;;;;;;;1.27;0.63;;;8.50;50.80;;;;;;5052070;28;20056;-64
2023/04/12 04:06:51;;;;;;;3.38;1.00;;;8.50;56.80;;;;;;5051810;28;20045;-64
2023/04/12 04:09:16;;;;;;;2.75;1.00;;;8.50;56.70;;;;;;5052910;28;20120;-64
2023/04/12 04:11:42;;;;;;;1.33;0.70;;;8.50;59.10;;;;;;5056003;28;20072;-65
2023/04/12 04:14:08;;;;;;;0.82;0.63;;;8.50;61.60;;;;;;5055898;28;20036;-65
2023/04/12 04:16:33;;;;;;;2.72;0.70;;;8.50;77.90;;;;;;5055807;28;20076;-65
2023/04/12 04:18:59;;;;;;;2.10;1.00;;;8.40;90.60;;;;;;5055873;28;20059;-66
2023/04/12 04:21:29;;;;;;;2.65;0.80;;;8.40;85.00;;;;;;5055860;28;20044;-65
2023/04/12 04:23:57;;;;;;;2.70;0.98;;;8.30;92.50;;;;;;5037697;28;20382;-65
2023/04/12 04:26:30;;;;;;;2.03;1.15;;;8.60;93.20;;;;;;5037434;28;20074;-64
2023/04/12 04:28:55;;;;;;;3.60;0.70;;;8.30;93.30;;;;;;5055724;28;20072;-64
2023/04/12 04:31:25;;;;;;;2.55;1.05;;;8.20;97.50;;;;;;5055289;28;20450;-64
2023/04/12 04:33:50;;;;;;;3.45;1.17;;;8.20;99.90;;;;;;5037404;28;20049;-65
2023/04/12 04:36:17;;;;;;;1.38;0.88;;;8.10;96.70;;;;;;5055255;28;20044;-65
2023/04/12 04:38:42;;;;;;;1.88;0.93;;;8.10;97.90;;;;;;5037862;28;20104;-67
2023/04/12 04:41:09;;;;;;;1.75;0.95;;;8.10;99.90;;;;;;5055151;28;20069;-66
2023/04/12 04:43:38;;;;;;;2.15;0.90;;;8.00;99.90;;;;;;5055396;28;20397;-66
2023/04/12 04:46:04;;;;;;;6.13;1.10;;;8.00;99.90;;;;;;5055056;28;20059;-66
2023/04/12 04:48:30;;;;;;;4.32;1.23;;;8.00;99.90;;;;;;5055217;28;20045;-67
2023/04/12 04:50:56;;;;;;;4.18;1.10;;;8.00;99.90;;;;;;5054963;28;20044;-69
2023/04/12 04:53:22;;;;;;;3.58;1.38;;;7.90;99.90;;;;;;5055241;28;20048;-67
2023/04/12 04:55:47;;;;;;;1.50;0.93;;;7.90;99.90;;;;;;5036969;28;20037;-67
2023/04/12 04:58:15;;;;;;;1.85;1.10;;;7.90;99.90;;;;;;5055108;28;20106;-67
2023/04/12 05:00:43;;;;;;;1.90;1.00;;;7.90;99.90;;;;;;5055055;28;20396;-66
2023/04/12 05:03:10;;;;;;;3.17;1.13;;;7.90;99.90;;;;;;5055024;28;20520;-66
2023/04/12 05:05:36;;;;;;;1.58;0.65;;;7.90;99.90;;;;;;5054686;28;20120;-66
2023/04/12 05:08:02;;;;;;;2.20;0.68;;;7.80;99.90;;;;;;5054859;28;20045;-66
2023/04/12 05:10:27;;;;;;;3.72;1.10;;;7.80;99.90;;;;;;5054656;28;20045;-67
2023/04/12 05:12:53;;;;;;;1.05;0.80;;;7.80;99.90;;;;;;5054747;28;20045;-66
2023/04/12 05:15:22;;;;;;;3.08;0.90;;;7.80;99.90;;;;;;5054834;28;20111;-65
2023/04/12 05:17:47;;;;;;;1.08;0.98;;;7.80;99.90;;;;;;5054519;28;20040;-65
2023/04/12 05:20:13;;;;;;;1.88;0.80;;;7.80;99.90;;;;;;5054179;28;20041;-66
2023/04/12 05:22:38;;;;;;;2.40;0.93;;;7.70;99.90;;;;;;5054091;28;20117;-67
2023/04/12 05:25:05;;;;;;;5.13;0.95;;;7.80;99.90;;;;;;5054505;28;20560;-66
2023/04/12 05:27:30;;;;;;;2.72;0.90;;;7.70;99.90;;;;;;5054526;28;20044;-66
2023/04/12 05:29:56;;;;;;;5.57;1.58;;;7.70;99.90;;;;;;5054728;28;20041;-67
2023/04/12 05:32:23;;;;;;;5.40;0.82;;;7.70;99.90;;;;;;5054133;28;20037;-66
2023/04/12 05:34:49;;;;;;;2.05;0.73;;;7.70;99.90;;;;;;5054320;28;20037;-65
2023/04/12 05:37:15;;;;;;;1.80;0.80;;;7.70;99.90;;;;;;5054077;28;20047;-65
2023/04/12 05:39:40;;;;;;;0.65;0.60;;;7.70;99.90;;;;;;5054269;28;20052;-64
2023/04/12 05:42:06;;;;;;;2.00;0.60;;;7.70;99.90;;;;;;5054306;28;20098;-64
2023/04/12 05:44:34;;;;;;;1.08;0.77;;;7.70;99.90;;;;;;5054252;28;20439;-65
2023/04/12 05:47:00;;;;;;;0.85;0.55;;;7.60;99.90;;;;;;5054178;28;20045;-66
2023/04/12 05:49:29;;;;;;;3.50;0.95;;;7.60;99.90;;;;;;5054137;28;20037;-66
2023/04/12 05:51:55;;;;;;;0.85;0.60;;;7.60;99.90;;;;;;5036558;28;20043;-66
2023/04/12 05:54:21;;;;;;;1.17;0.68;;;7.60;99.90;;;;;;5054097;28;20044;-65
2023/04/12 05:56:46;;;;;;;2.97;1.00;;;7.60;99.90;;;;;;5053973;28;20485;-66
2023/04/12 05:59:12;;;;;;;2.72;0.90;;;7.60;99.90;;;;;;5035926;28;20098;-66
2023/04/12 06:01:41;;;;;;;1.67;1.08;;;7.60;99.90;;;;;;5053893;28;20481;-65
2023/04/12 06:04:07;;;;;;;2.30;0.90;;;7.60;99.90;;;;;;5053635;28;20033;-65
2023/04/12 06:06:33;;;;;;;1.38;0.77;;;7.50;99.90;;;;;;5053429;28;20049;-66
2023/04/12 06:09:01;;;;;;;4.10;1.40;;;7.60;99.90;;;;;;5053814;28;20489;-66
2023/04/12 06:11:27;;;;;;;1.52;0.90;;;7.60;99.90;;;;;;5053834;28;20037;-67
2023/04/12 06:13:53;;;;;;;2.63;1.17;;;7.60;99.90;;;;;;5053721;28;20408;-66
2023/04/12 06:16:18;;;;;;;1.23;0.80;;;7.60;99.90;;;;;;5053719;28;20123;-67
2023/04/12 06:18:44;;;;;;;2.33;1.08;;;7.50;99.90;;;;;;5053262;28;20494;-66
2023/04/12 06:21:10;;;;;;;0.77;0.60;;;7.60;99.90;;;;;;5053312;28;20076;-66
2023/04/12 06:23:35;;;;;;;2.70;0.85;;;7.50;99.90;;;;;;5053283;28;20116;-66
2023/04/12 06:26:01;;;;;;;2.78;0.80;;;7.50;99.90;;;;;;5053468;28;20045;-66
2023/04/12 06:28:27;;;;;;;0.98;0.80;;;7.60;99.90;;;;;;5035754;28;20389;-65
2023/04/12 06:30:53;;;;;;;1.73;0.85;;;7.60;99.90;;;;;;5053403;28;20115;-66
2023/04/12 06:33:21;;;;;;;3.13;1.15;;;7.60;99.90;;;;;;5053007;28;20400;-65
2023/04/12 06:35:47;;;;;;;1.90;1.15;;;7.50;99.90;;;;;;5053264;28;20051;-65
2023/04/12 06:38:13;;;;;;;1.52;0.70;;;7.50;99.90;;;;;;5053476;28;20048;-66
2023/04/12 06:40:38;;;;;;;2.05;1.00;;;7.50;99.90;;;;;;5053602;28;20044;-69
2023/04/12 06:43:04;;;;;;;2.17;1.05;;;7.50;99.90;;;;;;5053311;28;20040;-68
2023/04/12 06:45:30;;;;;;;1.65;1.08;;;7.50;99.90;;;;;;5053124;28;20495;-68
2023/04/12 06:47:56;;;;;;;3.08;0.68;;;8.70;99.90;;;;;;5018649;28;20045;-68
2023/04/12 06:50:22;;;;;;;2.85;0.90;;;7.50;99.90;;;;;;5053133;28;20040;-68
2023/04/12 06:52:47;;;;;;;1.85;0.85;;;7.50;99.90;;;;;;5035093;28;20531;-68
2023/04/12 06:55:14;;;;;;;8.20;0.75;;;7.50;99.90;;;;;;5053078;28;20076;-68
2023/04/12 06:57:46;;;;;;;0.93;0.60;;;7.50;99.90;;;;;;5034871;28;20047;-68
2023/04/12 07:00:12;;;;;;;2.00;0.80;;;7.50;99.90;;;;;;5053059;28;20032;-68
2023/04/12 07:02:38;;;;;;;2.53;1.00;;;7.50;99.90;;;;;;5053020;28;20036;-68
2023/04/12 07:05:04;;;;;;;1.67;0.68;;;7.50;99.90;;;;;;5035007;28;20127;-68
2023/04/12 07:07:31;;;;;;;1.42;0.80;;;7.50;99.90;;;;;;5052377;28;20057;-68
2023/04/12 07:09:56;;;;;;;0.90;0.60;;;7.50;99.90;;;;;;5034728;28;20045;-68
2023/04/12 07:12:22;;;;;;;1.83;0.93;;;7.60;99.90;;;;;;5052569;28;20044;-69
2023/04/12 07:14:47;;;;;;;1.73;1.00;;;7.60;99.90;;;;;;5052782;28;20073;-69
2023/04/12 07:17:13;;;;;;;3.03;1.02;;;7.60;99.90;;;;;;5034693;28;20064;-68
2023/04/12 07:19:40;;;;;;;1.33;0.82;;;7.50;99.90;;;;;;5052391;28;20041;-68
2023/04/12 07:22:06;;;;;;;2.13;1.00;;;7.60;99.90;;;;;;5052763;28;20037;-68
2023/04/12 07:24:32;;;;;;;2.30;1.35;;;7.60;99.90;;;;;;5052480;28;20120;-69
2023/04/12 07:26:58;;;;;;;4.90;1.55;;;7.60;99.90;;;;;;5052627;28;20037;-68
2023/04/12 07:29:23;;;;;;;1.65;1.00;;;7.60;99.90;;;;;;5052706;28;20037;-70
2023/04/12 07:31:49;;;;;;;1.90;0.75;;;7.60;99.90;;;;;;5052622;28;20045;-70
2023/04/12 07:34:14;;;;;;;3.00;1.40;;;7.60;99.90;;;;;;5052653;28;20059;-69
2023/04/12 07:36:42;;;;;;;1.80;0.98;;;7.60;99.90;;;;;;5052607;28;20540;-69
2023/04/12 07:39:10;;;;;;;1.40;1.00;;;7.60;99.90;;;;;;5052661;28;20044;-69
2023/04/12 07:41:36;;;;;;;2.13;1.40;;;7.60;99.90;;;;;;5052585;28;20124;-69
2023/04/12 07:44:03;;;;;;;1.45;1.05;;;7.60;99.90;;;;;;5052893;28;20088;-69
2023/04/12 07:46:29;;;;;;;2.00;1.10;;;7.60;99.90;;;;;;5056142;28;20044;-70
2023/04/12 07:48:55;;;;;;;2.75;1.13;;;7.60;99.90;;;;;;5056466;28;20044;-69
2023/04/12 07:51:20;;;;;;;2.67;1.35;;;7.60;99.90;;;;;;5056475;28;20404;-70
2023/04/12 07:53:47;;;;;;;2.33;0.98;;;7.30;99.90;;;;;;5056391;28;20499;-69
2023/04/12 07:56:13;;;;;;;1.15;0.98;;;7.60;99.90;;;;;;5056376;28;20073;-69
2023/04/12 07:58:39;;;;;;;2.13;1.02;;;7.60;99.90;;;;;;5056240;28;20136;-71
2023/04/12 08:01:06;;;;;;;1.85;1.00;;;7.60;99.90;;;;;;5021579;28;20500;-69
2023/04/12 08:03:31;;;;;;;2.92;1.10;;;7.70;99.90;;;;;;5038052;28;20063;-70
2023/04/12 08:05:57;;;;;;;2.65;1.25;;;7.60;99.90;;;;;;5055893;28;20053;-69
2023/04/12 08:08:23;;;;;;;1.15;0.60;;;7.60;99.90;;;;;;5055837;28;20501;-70
2023/04/12 08:10:50;;;;;;;2.28;1.27;;;7.60;99.90;;;;;;5056077;28;20041;-69
2023/04/12 08:13:16;;;;;;;1.15;0.85;;;7.70;99.90;;;;;;5055775;28;20037;-70
2023/04/12 08:15:48;;;;;;;1.15;0.90;;;7.70;99.90;;;;;;5055987;28;20033;-70
2023/04/12 08:18:14;;;;;;;1.77;1.00;;;7.70;99.90;;;;;;5055951;28;20392;-70
2023/04/12 08:20:40;;;;;;;3.53;1.60;;;7.70;99.90;;;;;;5055848;28;20192;-69
2023/04/12 08:23:06;;;;;;;1.45;1.17;;;;;;;;;;5055867;28;20124;-70
2023/04/12 08:25:33;;;;;;;1.33;1.15;;;7.80;99.90;;;;;;5055418;28;20048;-70
2023/04/12 08:27:58;;;;;;;1.52;0.93;;;7.80;99.90;;;;;;5055802;28;20041;-69
2023/04/12 08:30:25;;;;;;;2.17;0.80;;;7.90;99.90;;;;;;5037567;28;20125;-70
2023/04/12 08:32:52;;;;;;;2.05;1.20;;;7.90;99.90;;;;;;5055677;28;20048;-69
2023/04/12 08:35:18;;;;;;;1.15;0.98;;;7.90;99.90;;;;;;5055636;28;20041;-70
2023/04/12 08:37:44;;;;;;;2.47;1.15;;;8.00;99.90;;;;;;5055535;28;20033;-70
2023/04/12 08:40:10;;;;;;;2.10;1.30;;;8.00;99.90;;;;;;5055565;28;20037;-69
2023/04/12 08:42:36;;;;;;;2.63;1.40;;;8.00;99.90;;;;;;5055265;28;20072;-69
2023/04/12 08:45:10;;;;;;;2.55;1.10;;;8.10;99.90;;;;;;5055492;28;20033;-69
2023/04/12 08:47:39;;;;;;;4.10;1.67;;;8.20;99.90;;;;;;5020791;28;20040;-69
2023/04/12 08:50:08;;;;;;;1.77;1.27;;;8.20;99.90;;;;;;5054969;28;20029;-71
2023/04/12 08:52:35;;;;;;;4.05;1.35;;;8.30;99.90;;;;;;5055025;28;20424;-69
2023/04/12 08:55:03;;;;;;;1.65;1.20;;;8.30;99.90;;;;;;5054968;28;20497;-70
2023/04/12 08:57:29;;;;;;;1.33;1.23;;;8.30;99.90;;;;;;5055212;28;20039;-69
2023/04/12 08:59:56;;;;;;;1.48;1.17;;;8.40;99.90;;;;;;5037243;28;20047;-70
2023/04/12 09:02:21;;;;;;;1.45;1.10;;;8.30;99.90;;;;;;5037178;28;20484;-69
2023/04/12 09:04:52;;;;;;;1.63;1.23;;;8.30;99.90;;;;;;5054796;28;20128;-69
2023/04/12 09:07:18;;;;;;;1.90;1.20;;;8.30;99.90;;;;;;5054586;28;20091;-69
2023/04/12 09:09:46;;;;;;;2.15;1.25;;;8.30;99.90;;;;;;5054704;28;20405;-69
2023/04/12 09:12:12;;;;;;;2.55;1.45;;;8.30;99.90;;;;;;5054621;28;20083;-69
2023/04/12 09:14:39;;;;;;;2.38;1.40;;;8.30;99.90;;;;;;5054768;28;20041;-69
2023/04/12 09:17:21;;;;;;;2.08;1.30;;;8.30;99.90;;;;;;5036665;28;20039;-69
2023/04/12 09:19:46;;;;;;;1.70;1.40;;;8.30;99.90;;;;;;5054840;28;20076;-69
2023/04/12 09:22:12;;;;;;;2.53;1.50;;;8.40;99.90;;;;;;5054739;28;20525;-69
2023/04/12 09:24:51;;;;;;;2.10;1.23;;;8.20;99.90;;;;;;5054455;28;20037;-69
2023/04/12 09:27:20;;;;;;;1.95;1.15;;;8.40;99.90;;;;;;5054604;28;20439;-69
2023/04/12 09:29:50;;;;;;;2.00;1.20;;;8.20;99.90;;;;;;5036429;28;20045;-69
2023/04/12 09:32:23;;;;;;;2.17;1.58;;;;;;;;;;5054588;28;20446;-69
2023/04/12 09:34:56;;;;;;;1.90;1.48;;;;;;;;;;5036350;28;20048;-70
2023/04/12 09:37:22;;;;;;;3.03;1.52;;;;;;;;;;5054468;28;20041;-69
2023/04/12 09:39:58;;;;;;;4.18;1.67;;;;;;;;;;5054091;28;20373;-69
2023/04/12 09:42:24;;;;;;;2.35;1.67;;;8.40;99.90;;;;;;5054350;28;20110;-69
2023/04/12 09:44:49;;;;;;;1.83;1.45;;;9.30;99.90;;;;;;5054009;28;20037;-69
2023/04/12 09:47:15;;;;;;;4.70;1.67;;;8.80;99.90;;;;;;5036116;28;20059;-69
2023/04/12 09:49:42;;;;;;;3.88;1.70;;;8.80;99.90;;;;;;5054158;28;20041;-69
2023/04/12 09:52:10;;;;;;;2.22;1.60;;;8.90;99.90;;;;;;5054137;28;20037;-69
2023/04/12 09:54:45;;;;;;;4.82;2.22;;;9.00;99.90;;;;;;5054046;28;20522;-69
2023/04/12 09:57:11;;;;;;;2.13;1.52;;;8.90;99.90;;;;;;5054026;28;20101;-68
2023/04/12 09:59:40;;;;;;;2.78;1.90;;;8.90;99.90;;;;;;5053959;28;20064;-69
2023/04/12 10:02:21;;;;;;;2.97;2.30;;;9.30;99.90;;;;;;5035725;28;20048;-68
2023/04/12 10:04:48;;;;;;;5.82;2.28;;;9.30;99.90;;;;;;5053893;28;20392;-68
2023/04/12 10:07:14;;;;;;;2.70;1.83;;;;;;;;;;5052627;28;20049;-68
2023/04/12 10:09:40;;;;;;;3.20;2.30;;;9.50;99.90;;;;;;5053764;28;20094;-68
2023/04/12 10:12:08;;;;;;;3.92;2.42;;;9.80;99.90;;;;;;5019196;28;20044;-68
2023/04/12 10:14:34;;;;;;;6.45;2.65;;;9.80;99.90;;;;;;5053722;28;20048;-69
2023/04/12 10:17:02;;;;;;;2.92;2.15;;;10.20;99.90;;;;;;5053691;28;20048;-69
2023/04/12 10:19:29;;;;;;;3.08;2.30;;;10.00;99.90;;;;;;5035489;28;20459;-68
2023/04/12 10:21:56;;;;;;;2.95;2.08;;;9.90;99.90;;;;;;5053587;28;20043;-69
2023/04/12 10:24:23;;;;;;;3.30;2.20;;;10.00;99.90;;;;;;5053479;28;20037;-68
2023/04/12 10:26:49;;;;;;;4.07;2.50;;;10.00;99.90;;;;;;5053465;28;20049;-68
2023/04/12 10:29:37;;;;;;;3.35;2.17;;;10.10;99.90;;;;;;5053421;28;20037;-68
2023/04/12 10:32:20;;;;;;;5.90;2.92;;;10.30;99.90;;;;;;5053398;28;20059;-68
2023/04/12 10:34:55;;;;;;;3.60;2.25;;;10.30;99.90;;;;;;5053163;28;20370;-69
2023/04/12 10:37:39;;;;;;;4.68;2.15;;;10.40;99.90;;;;;;5053056;28;20033;-68
2023/04/12 10:40:12;;;;;;;4.70;2.38;;;10.50;99.90;;;;;;5053306;28;20041;-68
2023/04/12 10:42:37;;;;;;;5.10;2.17;;;10.50;99.90;;;;;;5052906;28;20045;-67
2023/04/12 10:45:21;;;;;;;4.88;2.58;;;10.70;99.90;;;;;;5053145;28;20048;-68
2023/04/12 10:47:47;;;;;;;2.83;2.30;;;;;;;;;;5053088;28;20071;-69
2023/04/12 10:50:24;;;;;;;2.47;2.08;;;10.80;99.90;;;;;;5053112;28;20037;-68
2023/04/12 10:53:12;;;;;;;2.55;1.92;;;10.90;99.90;;;;;;5053069;28;20127;-68
2023/04/12 10:55:43;;;;;;;4.13;2.00;;;10.90;99.90;;;;;;5053105;28;20037;-68
2023/04/12 10:58:09;;;;;;;2.90;1.70;;;10.80;99.90;;;;;;5053062;28;20037;-69
2023/04/12 11:00:56;;;;;;;2.88;1.85;;;10.80;99.90;;;;;;5053024;28;20392;-68
2023/04/12 11:03:23;;;;;;;2.97;2.20;;;10.90;99.90;;;;;;5052748;28;20108;-68
2023/04/12 11:06:02;;;;;;;3.42;1.77;;;11.10;99.90;;;;;;5052637;28;20057;-70
2023/04/12 11:08:29;;;;;;;4.50;2.50;;;11.30;99.90;;;;;;5052875;28;20118;-68
2023/04/12 11:11:03;;;;;;;3.60;2.13;;;11.50;99.90;;;;;;5052882;28;20046;-68
2023/04/12 11:13:34;;;;;;;3.50;2.10;;;11.60;99.90;;;;;;5035002;28;20041;-68
2023/04/12 11:16:02;;;;;;;3.78;1.85;;;11.60;99.90;;;;;;5052982;28;20087;-70
2023/04/12 11:18:28;;;;;;;3.50;2.30;;;11.70;99.90;;;;;;5054114;28;20044;-68
2023/04/12 11:20:55;;;;;;;3.75;2.03;;;11.70;99.90;;;;;;5056690;28;20094;-68
2023/04/12 11:23:22;;;;;;;5.47;1.65;;;11.80;99.90;;;;;;5056923;28;20052;-69
2023/04/12 11:25:54;;;;;;;2.40;1.63;;;11.80;99.90;;;;;;5056777;28;20048;-69
2023/04/12 11:28:22;;;;;;;3.67;1.75;;;;;;;;;;5056939;28;20037;-69
2023/04/12 11:30:52;;;;;;;5.00;2.13;;;12.30;99.90;;;;;;5056830;28;20059;-68
2023/04/12 11:33:35;;;;;;;3.47;1.58;;;12.40;99.90;;;;;;5056698;28;20041;-69
2023/04/12 11:36:08;;;;;;;3.53;1.33;;;12.60;99.90;;;;;;5056671;28;20094;-69
2023/04/12 11:38:36;;;;;;;4.13;1.35;;;12.60;99.90;;;;;;5056561;28;20102;-68
2023/04/12 11:41:04;;;;;;;2.42;1.40;;;12.50;99.90;;;;;;5038584;28;20544;-68
2023/04/12 11:43:30;;;;;;;6.88;1.50;;;12.50;99.90;;;;;;5056485;28;20374;-68
2023/04/12 11:45:57;;;;;;;3.00;1.15;;;12.60;99.90;;;;;;5056214;28;20124;-68
2023/04/12 11:48:24;;;;;;;2.35;1.40;;;12.50;99.90;;;;;;5056449;28;20041;-68
2023/04/12 11:50:50;;;;;;;1.17;0.85;;;12.70;99.90;;;;;;5038197;28;20071;-67
2023/04/12 11:53:18;;;;;;;2.30;1.23;;;13.10;99.90;;;;;;5021730;28;20041;-68
2023/04/12 11:55:53;;;;;;;3.00;1.40;;;13.10;99.90;;;;;;5056032;28;20037;-68
2023/04/12 11:58:23;;;;;;;5.82;1.33;;;12.90;80.50;;;;;;5056393;28;20611;-68
2023/04/12 12:00:49;;;;;;;6.88;1.35;;;12.90;70.80;;;;;;5056287;28;20037;-68
2023/04/12 12:03:15;;;;;;;1.55;0.90;;;12.90;94.90;;;;;;5038256;28;20045;-68
2023/04/12 12:05:41;;;;;;;4.75;1.08;;;13.10;94.90;;;;;;5055736;28;20052;-67
2023/04/12 12:08:07;;;;;;;4.22;1.50;;;13.10;5.90;;;;;;5056140;28;20111;-67
2023/04/12 12:10:34;;;;;;;3.13;1.05;;;13.20;34.20;;;;;;5056043;28;20037;-67
2023/04/12 12:13:00;;;;;;;3.10;1.42;;;13.30;4.70;;;;;;5038217;28;20116;-67
2023/04/12 12:15:32;;;;;;;7.45;1.35;;;13.20;8.40;;;;;;5056071;28;20125;-68
2023/04/12 12:17:57;;;;;;;9.45;1.70;;;12.90;15.50;;;;;;5056078;28;20228;-67
2023/04/12 12:20:23;;;;;;;4.43;1.42;;;13.60;1.00;;;;;;5055952;28;20040;-68
2023/04/12 12:22:49;;;;;;;3.35;1.25;;;12.60;41.60;;;;;;5055917;28;20565;-68
2023/04/12 12:25:17;;;;;;;4.38;1.08;;;12.50;29.30;;;;;;5037548;28;20103;-68
2023/04/12 12:27:47;;;;;;;4.68;0.90;;;12.50;31.00;;;;;;5055793;28;20504;-67
2023/04/12 12:30:15;;;;;;;3.88;1.10;;;13.00;13.00;;;;;;5055117;28;20045;-67
2023/04/12 12:32:41;;;;;;;4.15;1.38;;;12.60;1.00;;;;;;5055652;28;20417;-67
2023/04/12 12:35:09;;;;;;;3.90;0.98;;;12.70;1.00;;;;;;5055731;28;20037;-67
2023/04/12 12:37:35;;;;;;;2.72;0.90;;;12.90;99.90;;;;;;5055645;28;20041;-67
2023/04/12 12:40:15;;;;;;;6.13;1.02;;;13.00;99.90;;;;;;5055601;28;20480;-67
2023/04/12 12:42:49;;;;;;;5.68;1.23;;;13.30;1.00;;;;;;5055506;28;20230;-67
2023/04/12 12:45:16;;;;;;;2.10;0.88;;;13.40;99.90;;;;;;5055443;28;20392;-66
2023/04/12 12:48:01;;;;;;;2.97;0.90;;;13.50;73.60;;;;;;5055136;28;20051;-67
2023/04/12 12:50:29;;;;;;;3.65;1.20;;;14.20;1.00;;;;;;5055309;28;20033;-67
2023/04/12 12:52:56;;;;;;;3.72;1.08;;;13.70;1.00;;;;;;5055368;28;20192;-67
2023/04/12 12:55:22;;;;;;;3.22;0.75;;;13.80;99.90;;;;;;5055227;28;20037;-65
2023/04/12 12:57:51;;;;;;;5.93;0.82;;;13.90;2.40;;;;;;5055219;28;20418;-68
2023/04/12 13:00:19;;;;;;;5.68;1.05;;;15.00;99.90;;;;;;5055136;28;20037;-66
2023/04/12 13:02:45;;;;;;;2.45;0.80;;;13.80;99.90;;;;;;5055131;28;20091;-67
2023/04/12 13:05:11;;;;;;;2.53;0.85;;;13.80;99.90;;;;;;5055122;28;20029;-66